sensor_id;sensor_type;location;lat;lon;timestamp;P1;durP1;ratioP1;P2;durP2;ratioP2
43990;SDS011;29654;50.784;20.604;2023-09-19T00:01:33;8.25;;;7.50;;
43990;SDS011;29654;50.784;20.604;2023-09-19T00:06:36;8.07;;;7.38;;
43990;SDS011;29654;50.784;20.604;2023-09-19T00:11:40;7.90;;;7.20;;
43990;SDS011;29654;50.784;20.604;2023-09-19T00:16:42;10.05;;;9.05;;
43990;SDS011;29654;50.784;20.604;2023-09-19T00:21:47;6.82;;;6.32;;
43990;SDS011;29654;50.784;20.604;2023-09-19T00:26:51;7.97;;;7.18;;
43990;SDS011;29654;50.784;20.604;2023-09-19T00:31:55;8.10;;;7.40;;
43990;SDS011;29654;50.784;20.604;2023-09-19T00:36:59;8.13;;;7.43;;
43990;SDS011;29654;50.784;20.604;2023-09-19T00:42:03;7.70;;;7.03;;
43990;SDS011;29654;50.784;20.604;2023-09-19T00:47:08;7.05;;;6.53;;
43990;SDS011;29654;50.784;20.604;2023-09-19T00:52:15;7.65;;;6.97;;
43990;SDS011;29654;50.784;20.604;2023-09-19T00:57:21;7.20;;;6.60;;
43990;SDS011;29654;50.784;20.604;2023-09-19T01:02:25;8.40;;;7.57;;
43990;SDS011;29654;50.784;20.604;2023-09-19T01:07:32;7.53;;;6.93;;
43990;SDS011;29654;50.784;20.604;2023-09-19T01:12:39;8.18;;;7.47;;
43990;SDS011;29654;50.784;20.604;2023-09-19T01:17:57;7.82;;;7.13;;
43990;SDS011;29654;50.784;20.604;2023-09-19T01:23:07;8.25;;;7.15;;
43990;SDS011;29654;50.784;20.604;2023-09-19T01:28:29;8.13;;;7.47;;
43990;SDS011;29654;50.784;20.604;2023-09-19T01:34:00;7.97;;;7.22;;
43990;SDS011;29654;50.784;20.604;2023-09-19T01:39:04;8.15;;;7.35;;
43990;SDS011;29654;50.784;20.604;2023-09-19T01:44:11;8.27;;;7.60;;
43990;SDS011;29654;50.784;20.604;2023-09-19T01:49:26;8.15;;;7.43;;
43990;SDS011;29654;50.784;20.604;2023-09-19T01:54:40;8.18;;;7.47;;
43990;SDS011;29654;50.784;20.604;2023-09-19T01:59:49;8.00;;;7.22;;
43990;SDS011;29654;50.784;20.604;2023-09-19T02:05:00;7.72;;;7.03;;
43990;SDS011;29654;50.784;20.604;2023-09-19T02:10:04;8.00;;;7.00;;
43990;SDS011;29654;50.784;20.604;2023-09-19T02:15:10;7.68;;;7.00;;
43990;SDS011;29654;50.784;20.604;2023-09-19T02:20:14;7.85;;;7.15;;
43990;SDS011;29654;50.784;20.604;2023-09-19T02:25:19;8.02;;;7.32;;
43990;SDS011;29654;50.784;20.604;2023-09-19T02:30:21;7.90;;;7.05;;
43990;SDS011;29654;50.784;20.604;2023-09-19T02:35:27;8.45;;;7.68;;
43990;SDS011;29654;50.784;20.604;2023-09-19T02:40:33;7.28;;;6.68;;
43990;SDS011;29654;50.784;20.604;2023-09-19T02:45:36;8.02;;;7.07;;
43990;SDS011;29654;50.784;20.604;2023-09-19T02:50:40;8.27;;;7.47;;
43990;SDS011;29654;50.784;20.604;2023-09-19T02:55:43;7.38;;;6.78;;
43990;SDS011;29654;50.784;20.604;2023-09-19T03:00:46;8.45;;;7.38;;
43990;SDS011;29654;50.784;20.604;2023-09-19T03:05:52;6.82;;;6.28;;
43990;SDS011;29654;50.784;20.604;2023-09-19T03:10:55;7.40;;;6.70;;
43990;SDS011;29654;50.784;20.604;2023-09-19T03:15:58;7.07;;;6.47;;
43990;SDS011;29654;50.784;20.604;2023-09-19T03:21:04;7.15;;;6.55;;
43990;SDS011;29654;50.784;20.604;2023-09-19T03:26:08;8.20;;;6.55;;
43990;SDS011;29654;50.784;20.604;2023-09-19T03:31:11;7.43;;;6.70;;
43990;SDS011;29654;50.784;20.604;2023-09-19T03:36:15;7.40;;;6.65;;
43990;SDS011;29654;50.784;20.604;2023-09-19T03:41:17;7.38;;;6.72;;
43990;SDS011;29654;50.784;20.604;2023-09-19T03:46:21;7.28;;;6.68;;
43990;SDS011;29654;50.784;20.604;2023-09-19T03:51:25;7.28;;;6.68;;
43990;SDS011;29654;50.784;20.604;2023-09-19T03:56:28;7.32;;;6.63;;
43990;SDS011;29654;50.784;20.604;2023-09-19T04:01:30;6.75;;;6.15;;
43990;SDS011;29654;50.784;20.604;2023-09-19T04:06:35;7.00;;;6.40;;
43990;SDS011;29654;50.784;20.604;2023-09-19T04:11:38;6.93;;;6.25;;
43990;SDS011;29654;50.784;20.604;2023-09-19T04:16:40;6.88;;;6.32;;
43990;SDS011;29654;50.784;20.604;2023-09-19T04:21:44;7.45;;;6.75;;
43990;SDS011;29654;50.784;20.604;2023-09-19T04:26:47;7.55;;;6.78;;
43990;SDS011;29654;50.784;20.604;2023-09-19T04:31:49;7.22;;;6.53;;
43990;SDS011;29654;50.784;20.604;2023-09-19T04:36:53;7.35;;;6.65;;
43990;SDS011;29654;50.784;20.604;2023-09-19T04:41:58;7.07;;;6.32;;
43990;SDS011;29654;50.784;20.604;2023-09-19T04:47:01;7.72;;;7.05;;
43990;SDS011;29654;50.784;20.604;2023-09-19T04:52:05;8.35;;;7.25;;
43990;SDS011;29654;50.784;20.604;2023-09-19T04:57:08;7.07;;;6.47;;
43990;SDS011;29654;50.784;20.604;2023-09-19T05:02:10;8.30;;;7.55;;
43990;SDS011;29654;50.784;20.604;2023-09-19T05:07:15;7.85;;;7.20;;
43990;SDS011;29654;50.784;20.604;2023-09-19T05:12:18;8.15;;;7.25;;
43990;SDS011;29654;50.784;20.604;2023-09-19T05:17:22;7.93;;;7.22;;
43990;SDS011;29654;50.784;20.604;2023-09-19T05:22:27;8.77;;;7.25;;
43990;SDS011;29654;50.784;20.604;2023-09-19T05:27:30;8.60;;;7.80;;
43990;SDS011;29654;50.784;20.604;2023-09-19T05:32:33;8.48;;;7.68;;
43990;SDS011;29654;50.784;20.604;2023-09-19T05:37:37;7.85;;;7.20;;
43990;SDS011;29654;50.784;20.604;2023-09-19T05:42:40;8.30;;;7.57;;
43990;SDS011;29654;50.784;20.604;2023-09-19T05:47:44;8.35;;;7.57;;
43990;SDS011;29654;50.784;20.604;2023-09-19T05:52:52;7.40;;;6.70;;
43990;SDS011;29654;50.784;20.604;2023-09-19T05:57:56;9.00;;;7.70;;
43990;SDS011;29654;50.784;20.604;2023-09-19T06:02:59;6.88;;;6.28;;
43990;SDS011;29654;50.784;20.604;2023-09-19T06:08:06;8.30;;;7.50;;
43990;SDS011;29654;50.784;20.604;2023-09-19T06:13:09;8.02;;;7.32;;
43990;SDS011;29654;50.784;20.604;2023-09-19T06:18:12;8.05;;;7.35;;
43990;SDS011;29654;50.784;20.604;2023-09-19T06:23:21;7.70;;;7.00;;
43990;SDS011;29654;50.784;20.604;2023-09-19T06:28:27;8.45;;;7.50;;
43990;SDS011;29654;50.784;20.604;2023-09-19T06:33:30;8.77;;;8.00;;
43990;SDS011;29654;50.784;20.604;2023-09-19T06:38:34;8.68;;;7.88;;
43990;SDS011;29654;50.784;20.604;2023-09-19T06:43:37;9.68;;;8.52;;
43990;SDS011;29654;50.784;20.604;2023-09-19T06:48:40;10.02;;;9.07;;
43990;SDS011;29654;50.784;20.604;2023-09-19T06:53:45;9.57;;;8.63;;
43990;SDS011;29654;50.784;20.604;2023-09-19T06:58:48;9.90;;;8.95;;
43990;SDS011;29654;50.784;20.604;2023-09-19T07:03:50;9.35;;;8.55;;
43990;SDS011;29654;50.784;20.604;2023-09-19T07:08:54;9.60;;;8.80;;
43990;SDS011;29654;50.784;20.604;2023-09-19T07:13:57;9.30;;;8.50;;
43990;SDS011;29654;50.784;20.604;2023-09-19T07:19:00;8.32;;;7.63;;
43990;SDS011;29654;50.784;20.604;2023-09-19T07:24:05;7.90;;;7.18;;
43990;SDS011;29654;50.784;20.604;2023-09-19T07:29:08;8.77;;;7.90;;
43990;SDS011;29654;50.784;20.604;2023-09-19T07:34:10;9.57;;;8.70;;
43990;SDS011;29654;50.784;20.604;2023-09-19T07:39:15;8.63;;;7.93;;
43990;SDS011;29654;50.784;20.604;2023-09-19T07:44:18;9.85;;;8.95;;
43990;SDS011;29654;50.784;20.604;2023-09-19T07:49:21;9.65;;;8.77;;
43990;SDS011;29654;50.784;20.604;2023-09-19T07:54:26;9.07;;;8.18;;
43990;SDS011;29654;50.784;20.604;2023-09-19T07:59:35;8.57;;;7.85;;
43990;SDS011;29654;50.784;20.604;2023-09-19T08:04:39;9.50;;;8.55;;
43990;SDS011;29654;50.784;20.604;2023-09-19T08:09:43;8.32;;;7.53;;
43990;SDS011;29654;50.784;20.604;2023-09-19T08:14:48;8.32;;;7.63;;
43990;SDS011;29654;50.784;20.604;2023-09-19T08:19:51;8.07;;;7.38;;
43990;SDS011;29654;50.784;20.604;2023-09-19T08:24:55;7.25;;;6.75;;
43990;SDS011;29654;50.784;20.604;2023-09-19T08:29:58;7.07;;;6.47;;
43990;SDS011;29654;50.784;20.604;2023-09-19T08:35:00;7.20;;;6.70;;
43990;SDS011;29654;50.784;20.604;2023-09-19T08:40:06;7.18;;;6.57;;
43990;SDS011;29654;50.784;20.604;2023-09-19T08:45:10;7.43;;;6.72;;
43990;SDS011;29654;50.784;20.604;2023-09-19T08:50:15;7.18;;;6.60;;
43990;SDS011;29654;50.784;20.604;2023-09-19T08:55:29;6.90;;;6.30;;
43990;SDS011;29654;50.784;20.604;2023-09-19T09:00:33;7.85;;;7.15;;
43990;SDS011;29654;50.784;20.604;2023-09-19T09:05:37;7.72;;;7.10;;
43990;SDS011;29654;50.784;20.604;2023-09-19T09:10:45;10.23;;;9.35;;
43990;SDS011;29654;50.784;20.604;2023-09-19T09:15:48;11.65;;;10.63;;
43990;SDS011;29654;50.784;20.604;2023-09-19T09:20:50;12.77;;;11.57;;
43990;SDS011;29654;50.784;20.604;2023-09-19T09:25:55;12.57;;;11.38;;
43990;SDS011;29654;50.784;20.604;2023-09-19T09:31:02;13.27;;;11.88;;
43990;SDS011;29654;50.784;20.604;2023-09-19T09:36:08;12.98;;;11.77;;
43990;SDS011;29654;50.784;20.604;2023-09-19T09:41:14;13.60;;;12.40;;
43990;SDS011;29654;50.784;20.604;2023-09-19T09:46:27;13.88;;;12.68;;
43990;SDS011;29654;50.784;20.604;2023-09-19T09:51:58;13.30;;;12.13;;
43990;SDS011;29654;50.784;20.604;2023-09-19T09:57:07;14.10;;;12.65;;
43990;SDS011;29654;50.784;20.604;2023-09-19T10:02:20;12.23;;;11.13;;
43990;SDS011;29654;50.784;20.604;2023-09-19T10:07:30;10.85;;;9.95;;
43990;SDS011;29654;50.784;20.604;2023-09-19T10:12:46;11.10;;;10.10;;
43990;SDS011;29654;50.784;20.604;2023-09-19T10:17:50;9.68;;;8.75;;
43990;SDS011;29654;50.784;20.604;2023-09-19T10:23:00;9.73;;;8.88;;
43990;SDS011;29654;50.784;20.604;2023-09-19T10:28:12;8.30;;;7.53;;
43990;SDS011;29654;50.784;20.604;2023-09-19T10:33:22;7.93;;;7.22;;
43990;SDS011;29654;50.784;20.604;2023-09-19T10:38:27;8.88;;;7.90;;
43990;SDS011;29654;50.784;20.604;2023-09-19T10:43:31;9.38;;;8.43;;
43990;SDS011;29654;50.784;20.604;2023-09-19T10:48:36;8.10;;;7.45;;
43990;SDS011;29654;50.784;20.604;2023-09-19T10:53:43;9.65;;;8.85;;
43990;SDS011;29654;50.784;20.604;2023-09-19T10:58:52;8.90;;;8.13;;
43990;SDS011;29654;50.784;20.604;2023-09-19T11:04:29;8.65;;;7.85;;
43990;SDS011;29654;50.784;20.604;2023-09-19T11:09:43;8.38;;;6.57;;
43990;SDS011;29654;50.784;20.604;2023-09-19T11:14:50;6.20;;;5.68;;
43990;SDS011;29654;50.784;20.604;2023-09-19T11:25:41;5.68;;;5.07;;
43990;SDS011;29654;50.784;20.604;2023-09-19T11:30:50;7.07;;;6.30;;
43990;SDS011;29654;50.784;20.604;2023-09-19T11:36:00;7.18;;;5.50;;
43990;SDS011;29654;50.784;20.604;2023-09-19T11:46:52;7.32;;;6.63;;
43990;SDS011;29654;50.784;20.604;2023-09-19T11:51:57;7.40;;;6.70;;
43990;SDS011;29654;50.784;20.604;2023-09-19T11:57:01;7.47;;;6.88;;
43990;SDS011;29654;50.784;20.604;2023-09-19T12:02:06;6.60;;;5.97;;
43990;SDS011;29654;50.784;20.604;2023-09-19T12:07:12;4.88;;;4.30;;
43990;SDS011;29654;50.784;20.604;2023-09-19T12:12:19;4.72;;;4.32;;
43990;SDS011;29654;50.784;20.604;2023-09-19T12:17:23;5.32;;;4.05;;
43990;SDS011;29654;50.784;20.604;2023-09-19T12:22:28;4.30;;;3.90;;
43990;SDS011;29654;50.784;20.604;2023-09-19T12:27:44;3.83;;;3.38;;
43990;SDS011;29654;50.784;20.604;2023-09-19T12:32:49;8.05;;;4.05;;
43990;SDS011;29654;50.784;20.604;2023-09-19T12:37:51;5.38;;;3.47;;
43990;SDS011;29654;50.784;20.604;2023-09-19T12:42:56;4.72;;;3.95;;
43990;SDS011;29654;50.784;20.604;2023-09-19T12:48:19;4.28;;;3.88;;
43990;SDS011;29654;50.784;20.604;2023-09-19T12:53:29;4.28;;;3.88;;
43990;SDS011;29654;50.784;20.604;2023-09-19T12:58:34;5.95;;;4.18;;
43990;SDS011;29654;50.784;20.604;2023-09-19T13:03:40;5.60;;;4.45;;
43990;SDS011;29654;50.784;20.604;2023-09-19T13:08:43;8.00;;;5.15;;
43990;SDS011;29654;50.784;20.604;2023-09-19T13:14:13;5.30;;;4.25;;
43990;SDS011;29654;50.784;20.604;2023-09-19T13:24:49;5.50;;;4.97;;
43990;SDS011;29654;50.784;20.604;2023-09-19T13:29:52;4.50;;;4.05;;
43990;SDS011;29654;50.784;20.604;2023-09-19T13:34:54;5.18;;;4.75;;
43990;SDS011;29654;50.784;20.604;2023-09-19T13:39:59;5.32;;;4.75;;
43990;SDS011;29654;50.784;20.604;2023-09-19T13:45:02;5.25;;;4.78;;
43990;SDS011;29654;50.784;20.604;2023-09-19T13:50:06;4.40;;;4.00;;
43990;SDS011;29654;50.784;20.604;2023-09-19T13:55:11;7.35;;;4.53;;
43990;SDS011;29654;50.784;20.604;2023-09-19T14:00:14;6.15;;;4.53;;
43990;SDS011;29654;50.784;20.604;2023-09-19T14:05:18;5.05;;;4.55;;
43990;SDS011;29654;50.784;20.604;2023-09-19T14:10:23;4.85;;;4.45;;
43990;SDS011;29654;50.784;20.604;2023-09-19T14:15:26;4.65;;;3.80;;
43990;SDS011;29654;50.784;20.604;2023-09-19T14:20:30;5.20;;;4.22;;
43990;SDS011;29654;50.784;20.604;2023-09-19T14:25:35;5.10;;;4.55;;
43990;SDS011;29654;50.784;20.604;2023-09-19T14:30:38;4.97;;;3.95;;
43990;SDS011;29654;50.784;20.604;2023-09-19T14:35:41;5.32;;;4.32;;
43990;SDS011;29654;50.784;20.604;2023-09-19T14:40:45;4.72;;;4.25;;
43990;SDS011;29654;50.784;20.604;2023-09-19T14:45:50;4.18;;;3.78;;
43990;SDS011;29654;50.784;20.604;2023-09-19T14:50:52;5.00;;;4.53;;
43990;SDS011;29654;50.784;20.604;2023-09-19T14:55:57;6.57;;;4.47;;
43990;SDS011;29654;50.784;20.604;2023-09-19T15:01:03;3.70;;;3.40;;
43990;SDS011;29654;50.784;20.604;2023-09-19T15:06:08;4.05;;;3.75;;
43990;SDS011;29654;50.784;20.604;2023-09-19T15:11:16;3.53;;;3.22;;
43990;SDS011;29654;50.784;20.604;2023-09-19T15:16:19;3.28;;;3.08;;
43990;SDS011;29654;50.784;20.604;2023-09-19T15:21:22;3.83;;;3.42;;
43990;SDS011;29654;50.784;20.604;2023-09-19T15:26:26;4.80;;;3.55;;
43990;SDS011;29654;50.784;20.604;2023-09-19T15:31:30;3.30;;;2.97;;
43990;SDS011;29654;50.784;20.604;2023-09-19T15:36:32;5.60;;;2.92;;
43990;SDS011;29654;50.784;20.604;2023-09-19T15:41:38;5.78;;;3.75;;
43990;SDS011;29654;50.784;20.604;2023-09-19T15:46:43;3.28;;;2.97;;
43990;SDS011;29654;50.784;20.604;2023-09-19T15:51:46;4.47;;;3.65;;
43990;SDS011;29654;50.784;20.604;2023-09-19T15:56:50;3.47;;;3.05;;
43990;SDS011;29654;50.784;20.604;2023-09-19T16:01:52;6.15;;;3.42;;
43990;SDS011;29654;50.784;20.604;2023-09-19T16:06:55;5.05;;;3.67;;
43990;SDS011;29654;50.784;20.604;2023-09-19T16:11:59;5.25;;;3.63;;
43990;SDS011;29654;50.784;20.604;2023-09-19T16:17:03;4.13;;;3.72;;
43990;SDS011;29654;50.784;20.604;2023-09-19T16:22:07;5.10;;;4.43;;
43990;SDS011;29654;50.784;20.604;2023-09-19T16:27:11;5.25;;;4.13;;
43990;SDS011;29654;50.784;20.604;2023-09-19T16:32:15;4.45;;;3.78;;
43990;SDS011;29654;50.784;20.604;2023-09-19T16:37:20;4.05;;;3.72;;
43990;SDS011;29654;50.784;20.604;2023-09-19T16:42:25;4.28;;;3.85;;
43990;SDS011;29654;50.784;20.604;2023-09-19T16:47:27;6.35;;;3.65;;
43990;SDS011;29654;50.784;20.604;2023-09-19T16:52:30;4.45;;;3.72;;
43990;SDS011;29654;50.784;20.604;2023-09-19T16:57:34;5.00;;;4.15;;
43990;SDS011;29654;50.784;20.604;2023-09-19T17:02:37;4.30;;;3.90;;
43990;SDS011;29654;50.784;20.604;2023-09-19T17:07:40;4.15;;;3.75;;
43990;SDS011;29654;50.784;20.604;2023-09-19T17:12:44;6.35;;;4.43;;
43990;SDS011;29654;50.784;20.604;2023-09-19T17:17:50;4.50;;;4.10;;
43990;SDS011;29654;50.784;20.604;2023-09-19T17:22:57;4.30;;;4.00;;
43990;SDS011;29654;50.784;20.604;2023-09-19T17:28:01;4.47;;;4.07;;
43990;SDS011;29654;50.784;20.604;2023-09-19T17:33:04;5.93;;;4.40;;
43990;SDS011;29654;50.784;20.604;2023-09-19T17:38:06;5.40;;;4.35;;
43990;SDS011;29654;50.784;20.604;2023-09-19T17:43:11;4.13;;;3.83;;
43990;SDS011;29654;50.784;20.604;2023-09-19T17:48:14;5.13;;;4.00;;
43990;SDS011;29654;50.784;20.604;2023-09-19T17:53:16;5.07;;;4.57;;
43990;SDS011;29654;50.784;20.604;2023-09-19T17:58:20;5.60;;;4.95;;
43990;SDS011;29654;50.784;20.604;2023-09-19T18:03:24;5.15;;;4.75;;
43990;SDS011;29654;50.784;20.604;2023-09-19T18:08:27;5.18;;;4.72;;
43990;SDS011;29654;50.784;20.604;2023-09-19T18:13:31;5.40;;;4.90;;
43990;SDS011;29654;50.784;20.604;2023-09-19T18:18:34;7.53;;;6.82;;
43990;SDS011;29654;50.784;20.604;2023-09-19T18:23:37;9.50;;;8.70;;
43990;SDS011;29654;50.784;20.604;2023-09-19T18:28:41;13.05;;;11.85;;
43990;SDS011;29654;50.784;20.604;2023-09-19T18:33:44;13.68;;;12.25;;
43990;SDS011;29654;50.784;20.604;2023-09-19T18:38:48;12.30;;;11.23;;
43990;SDS011;29654;50.784;20.604;2023-09-19T18:43:52;10.32;;;9.25;;
43990;SDS011;29654;50.784;20.604;2023-09-19T18:48:56;9.40;;;8.60;;
43990;SDS011;29654;50.784;20.604;2023-09-19T18:53:59;8.57;;;7.95;;
43990;SDS011;29654;50.784;20.604;2023-09-19T18:59:03;8.35;;;7.55;;
43990;SDS011;29654;50.784;20.604;2023-09-19T19:04:07;9.38;;;6.50;;
43990;SDS011;29654;50.784;20.604;2023-09-19T19:09:11;6.45;;;5.95;;
43990;SDS011;29654;50.784;20.604;2023-09-19T19:14:16;6.35;;;5.80;;
43990;SDS011;29654;50.784;20.604;2023-09-19T19:19:18;6.55;;;5.95;;
43990;SDS011;29654;50.784;20.604;2023-09-19T19:24:21;6.47;;;5.97;;
43990;SDS011;29654;50.784;20.604;2023-09-19T19:29:25;8.55;;;6.32;;
43990;SDS011;29654;50.784;20.604;2023-09-19T19:34:28;6.47;;;5.35;;
43990;SDS011;29654;50.784;20.604;2023-09-19T19:39:33;5.68;;;5.25;;
43990;SDS011;29654;50.784;20.604;2023-09-19T19:44:37;7.32;;;6.10;;
43990;SDS011;29654;50.784;20.604;2023-09-19T19:49:39;5.57;;;5.05;;
43990;SDS011;29654;50.784;20.604;2023-09-19T19:54:43;5.82;;;5.28;;
43990;SDS011;29654;50.784;20.604;2023-09-19T19:59:50;6.13;;;5.53;;
43990;SDS011;29654;50.784;20.604;2023-09-19T20:04:54;5.82;;;5.35;;
43990;SDS011;29654;50.784;20.604;2023-09-19T20:09:57;5.90;;;5.30;;
43990;SDS011;29654;50.784;20.604;2023-09-19T20:15:01;5.75;;;5.18;;
43990;SDS011;29654;50.784;20.604;2023-09-19T20:20:04;5.30;;;4.90;;
43990;SDS011;29654;50.784;20.604;2023-09-19T20:25:15;5.85;;;5.45;;
43990;SDS011;29654;50.784;20.604;2023-09-19T20:30:20;6.63;;;5.68;;
43990;SDS011;29654;50.784;20.604;2023-09-19T20:35:23;5.88;;;5.38;;
43990;SDS011;29654;50.784;20.604;2023-09-19T20:40:25;7.15;;;6.45;;
43990;SDS011;29654;50.784;20.604;2023-09-19T20:45:29;9.82;;;6.13;;
43990;SDS011;29654;50.784;20.604;2023-09-19T20:50:33;21.60;;;5.90;;
43990;SDS011;29654;50.784;20.604;2023-09-19T20:55:37;6.05;;;5.03;;
43990;SDS011;29654;50.784;20.604;2023-09-19T21:00:42;8.20;;;5.00;;
43990;SDS011;29654;50.784;20.604;2023-09-19T21:05:45;12.75;;;5.20;;
43990;SDS011;29654;50.784;20.604;2023-09-19T21:10:48;13.45;;;5.78;;
43990;SDS011;29654;50.784;20.604;2023-09-19T21:15:52;4.95;;;4.55;;
43990;SDS011;29654;50.784;20.604;2023-09-19T21:20:55;4.97;;;4.13;;
43990;SDS011;29654;50.784;20.604;2023-09-19T21:26:03;4.68;;;4.28;;
43990;SDS011;29654;50.784;20.604;2023-09-19T21:31:08;9.50;;;4.25;;
43990;SDS011;29654;50.784;20.604;2023-09-19T21:36:12;5.20;;;4.70;;
43990;SDS011;29654;50.784;20.604;2023-09-19T21:41:19;6.53;;;5.72;;
43990;SDS011;29654;50.784;20.604;2023-09-19T21:46:24;5.38;;;4.72;;
43990;SDS011;29654;50.784;20.604;2023-09-19T21:51:27;5.45;;;5.05;;
43990;SDS011;29654;50.784;20.604;2023-09-19T21:56:30;5.18;;;4.78;;
43990;SDS011;29654;50.784;20.604;2023-09-19T22:01:34;4.68;;;4.38;;
43990;SDS011;29654;50.784;20.604;2023-09-19T22:06:39;6.78;;;4.15;;
43990;SDS011;29654;50.784;20.604;2023-09-19T22:11:42;4.60;;;4.30;;
43990;SDS011;29654;50.784;20.604;2023-09-19T22:16:45;6.35;;;3.42;;
43990;SDS011;29654;50.784;20.604;2023-09-19T22:21:50;6.60;;;3.72;;
43990;SDS011;29654;50.784;20.604;2023-09-19T22:26:53;3.95;;;3.65;;
43990;SDS011;29654;50.784;20.604;2023-09-19T22:31:57;3.80;;;3.55;;
43990;SDS011;29654;50.784;20.604;2023-09-19T22:36:59;3.65;;;3.35;;
43990;SDS011;29654;50.784;20.604;2023-09-19T22:42:02;4.53;;;4.15;;
43990;SDS011;29654;50.784;20.604;2023-09-19T22:47:12;6.20;;;4.75;;
43990;SDS011;29654;50.784;20.604;2023-09-19T22:52:15;4.78;;;4.43;;
43990;SDS011;29654;50.784;20.604;2023-09-19T22:57:18;4.88;;;4.10;;
43990;SDS011;29654;50.784;20.604;2023-09-19T23:02:22;3.67;;;3.38;;
43990;SDS011;29654;50.784;20.604;2023-09-19T23:07:28;3.70;;;3.40;;
43990;SDS011;29654;50.784;20.604;2023-09-19T23:12:31;4.57;;;4.03;;
43990;SDS011;29654;50.784;20.604;2023-09-19T23:17:35;4.53;;;3.35;;
43990;SDS011;29654;50.784;20.604;2023-09-19T23:22:37;9.20;;;3.80;;
43990;SDS011;29654;50.784;20.604;2023-09-19T23:27:41;3.83;;;3.53;;
43990;SDS011;29654;50.784;20.604;2023-09-19T23:32:54;3.50;;;3.20;;
43990;SDS011;29654;50.784;20.604;2023-09-19T23:37:57;2.70;;;2.40;;
43990;SDS011;29654;50.784;20.604;2023-09-19T23:43:01;7.28;;;2.75;;
43990;SDS011;29654;50.784;20.604;2023-09-19T23:48:12;20.00;;;3.70;;
43990;SDS011;29654;50.784;20.604;2023-09-19T23:53:16;12.85;;;3.50;;
43990;SDS011;29654;50.784;20.604;2023-09-19T23:58:19;3.58;;;2.55;;
